sensor_id;sensor_type;location;lat;lon;timestamp;pressure;altitude;pressure_sealevel;temperature;humidity
64889;BME280;51386;53.082;8.816;2023-03-25T00:01:31;99924.16;;;14.59;57.16
64889;BME280;51386;53.082;8.816;2023-03-25T00:04:01;99924.31;;;14.64;56.98
64889;BME280;51386;53.082;8.816;2023-03-25T00:06:30;99920.34;;;14.73;56.80
64889;BME280;51386;53.082;8.816;2023-03-25T00:09:00;99927.03;;;14.75;56.81
64889;BME280;51386;53.082;8.816;2023-03-25T00:11:28;99931.09;;;14.78;56.55
64889;BME280;51386;53.082;8.816;2023-03-25T00:13:55;99930.72;;;14.74;56.89
64889;BME280;51386;53.082;8.816;2023-03-25T00:16:22;99927.03;;;14.75;56.77
64889;BME280;51386;53.082;8.816;2023-03-25T00:18:49;99922.03;;;14.67;56.95
64889;BME280;51386;53.082;8.816;2023-03-25T00:21:18;99929.63;;;14.64;57.35
64889;BME280;51386;53.082;8.816;2023-03-25T00:23:45;99914.59;;;14.58;57.21
64889;BME280;51386;53.082;8.816;2023-03-25T00:26:12;99923.94;;;14.60;57.10
64889;BME280;51386;53.082;8.816;2023-03-25T00:28:39;99925.41;;;14.56;57.50
64889;BME280;51386;53.082;8.816;2023-03-25T00:31:11;99917.97;;;14.65;57.16
64889;BME280;51386;53.082;8.816;2023-03-25T00:33:39;99921.75;;;14.75;56.84
64889;BME280;51386;53.082;8.816;2023-03-25T00:36:10;99922.47;;;14.82;56.61
64889;BME280;51386;53.082;8.816;2023-03-25T00:38:41;99921.13;;;14.91;56.07
64889;BME280;51386;53.082;8.816;2023-03-25T00:41:14;99920.69;;;14.95;55.79
64889;BME280;51386;53.082;8.816;2023-03-25T00:43:51;99917.31;;;14.87;55.89
64889;BME280;51386;53.082;8.816;2023-03-25T00:46:18;99924.59;;;14.92;55.80
64889;BME280;51386;53.082;8.816;2023-03-25T00:48:45;99915.03;;;14.91;55.77
64889;BME280;51386;53.082;8.816;2023-03-25T00:51:12;99918.84;;;14.95;55.43
64889;BME280;51386;53.082;8.816;2023-03-25T00:53:50;99910.97;;;15.07;55.26
64889;BME280;51386;53.082;8.816;2023-03-25T00:56:19;99911.16;;;15.05;55.34
64889;BME280;51386;53.082;8.816;2023-03-25T00:58:46;99905.34;;;15.15;55.17
64889;BME280;51386;53.082;8.816;2023-03-25T01:01:16;99909.75;;;15.21;55.01
64889;BME280;51386;53.082;8.816;2023-03-25T01:03:43;99913.69;;;15.30;54.31
64889;BME280;51386;53.082;8.816;2023-03-25T01:06:11;99914.50;;;15.30;54.19
64889;BME280;51386;53.082;8.816;2023-03-25T01:08:40;99904.22;;;15.22;54.13
64889;BME280;51386;53.082;8.816;2023-03-25T01:11:19;99902.97;;;15.25;54.20
64889;BME280;51386;53.082;8.816;2023-03-25T01:13:47;99914.56;;;15.24;53.87
64889;BME280;51386;53.082;8.816;2023-03-25T01:16:14;99906.75;;;15.29;53.73
64889;BME280;51386;53.082;8.816;2023-03-25T01:18:41;99906.91;;;15.34;53.87
64889;BME280;51386;53.082;8.816;2023-03-25T01:21:08;99897.47;;;15.38;53.77
64889;BME280;51386;53.082;8.816;2023-03-25T01:23:35;99898.81;;;15.29;53.90
64889;BME280;51386;53.082;8.816;2023-03-25T01:26:02;99895.78;;;15.14;53.91
64889;BME280;51386;53.082;8.816;2023-03-25T01:28:31;99894.38;;;15.11;54.22
64889;BME280;51386;53.082;8.816;2023-03-25T01:31:00;99893.56;;;15.11;54.08
64889;BME280;51386;53.082;8.816;2023-03-25T01:33:28;99892.66;;;15.17;53.79
64889;BME280;51386;53.082;8.816;2023-03-25T01:35:54;99889.09;;;15.11;54.11
64889;BME280;51386;53.082;8.816;2023-03-25T01:38:22;99886.63;;;15.10;53.97
64889;BME280;51386;53.082;8.816;2023-03-25T01:40:50;99888.16;;;15.17;54.07
64889;BME280;51386;53.082;8.816;2023-03-25T01:43:18;99877.94;;;15.21;53.80
64889;BME280;51386;53.082;8.816;2023-03-25T01:45:47;99881.25;;;15.16;53.44
64889;BME280;51386;53.082;8.816;2023-03-25T01:48:20;99882.97;;;15.11;53.38
64889;BME280;51386;53.082;8.816;2023-03-25T01:50:52;99877.22;;;15.14;53.40
64889;BME280;51386;53.082;8.816;2023-03-25T01:53:20;99874.72;;;15.19;53.38
64889;BME280;51386;53.082;8.816;2023-03-25T01:55:48;99878.38;;;15.18;53.11
64889;BME280;51386;53.082;8.816;2023-03-25T01:58:20;99873.75;;;15.13;52.87
64889;BME280;51386;53.082;8.816;2023-03-25T02:00:50;99870.16;;;15.08;53.29
64889;BME280;51386;53.082;8.816;2023-03-25T02:03:21;99870.53;;;15.11;53.26
64889;BME280;51386;53.082;8.816;2023-03-25T02:05:55;99873.53;;;15.15;52.81
64889;BME280;51386;53.082;8.816;2023-03-25T02:08:25;99870.88;;;15.15;52.79
64889;BME280;51386;53.082;8.816;2023-03-25T02:10:52;99870.16;;;15.08;53.12
64889;BME280;51386;53.082;8.816;2023-03-25T02:13:20;99866.63;;;15.14;53.05
64889;BME280;51386;53.082;8.816;2023-03-25T02:16:10;99869.47;;;15.12;52.70
64889;BME280;51386;53.082;8.816;2023-03-25T02:18:52;99871.00;;;15.20;53.22
64889;BME280;51386;53.082;8.816;2023-03-25T02:22:03;99865.38;;;15.16;52.58
64889;BME280;51386;53.082;8.816;2023-03-25T02:25:01;99856.00;;;15.14;52.71
64889;BME280;51386;53.082;8.816;2023-03-25T02:27:55;99858.44;;;15.15;52.41
64889;BME280;51386;53.082;8.816;2023-03-25T02:31:04;99855.88;;;15.09;52.64
64889;BME280;51386;53.082;8.816;2023-03-25T02:34:20;99865.31;;;15.05;52.62
64889;BME280;51386;53.082;8.816;2023-03-25T02:37:23;99868.09;;;15.10;52.31
64889;BME280;51386;53.082;8.816;2023-03-25T02:40:02;99861.31;;;15.14;52.20
64889;BME280;51386;53.082;8.816;2023-03-25T02:42:38;99859.94;;;15.11;52.37
64889;BME280;51386;53.082;8.816;2023-03-25T02:45:13;99851.50;;;15.14;52.11
64889;BME280;51386;53.082;8.816;2023-03-25T02:47:48;99854.28;;;15.19;52.32
64889;BME280;51386;53.082;8.816;2023-03-25T02:50:23;99853.94;;;15.16;52.23
64889;BME280;51386;53.082;8.816;2023-03-25T02:52:56;99851.25;;;15.04;51.93
64889;BME280;51386;53.082;8.816;2023-03-25T02:55:28;99850.44;;;15.04;52.20
64889;BME280;51386;53.082;8.816;2023-03-25T02:57:59;99846.53;;;15.06;52.20
64889;BME280;51386;53.082;8.816;2023-03-25T03:00:30;99846.66;;;15.11;51.93
64889;BME280;51386;53.082;8.816;2023-03-25T03:03:01;99839.63;;;15.17;52.02
64889;BME280;51386;53.082;8.816;2023-03-25T03:05:31;99845.16;;;15.04;52.60
64889;BME280;51386;53.082;8.816;2023-03-25T03:08:16;99840.34;;;14.82;53.56
64889;BME280;51386;53.082;8.816;2023-03-25T03:11:01;99841.81;;;14.78;53.78
64889;BME280;51386;53.082;8.816;2023-03-25T03:13:53;99841.44;;;14.75;53.58
64889;BME280;51386;53.082;8.816;2023-03-25T03:16:32;99839.97;;;14.79;53.59
64889;BME280;51386;53.082;8.816;2023-03-25T03:19:18;99836.06;;;14.81;53.37
64889;BME280;51386;53.082;8.816;2023-03-25T03:21:55;99824.59;;;14.87;52.97
64889;BME280;51386;53.082;8.816;2023-03-25T03:24:30;99830.63;;;14.76;53.41
64889;BME280;51386;53.082;8.816;2023-03-25T03:27:08;99829.38;;;14.79;53.16
64889;BME280;51386;53.082;8.816;2023-03-25T03:29:43;99827.97;;;14.76;53.29
64889;BME280;51386;53.082;8.816;2023-03-25T03:32:15;99818.56;;;14.80;52.77
64889;BME280;51386;53.082;8.816;2023-03-25T03:34:51;99819.28;;;14.87;52.77
64889;BME280;51386;53.082;8.816;2023-03-25T03:37:26;99825.16;;;14.89;52.64
64889;BME280;51386;53.082;8.816;2023-03-25T03:39:56;99828.63;;;14.90;52.16
64889;BME280;51386;53.082;8.816;2023-03-25T03:42:29;99823.78;;;14.87;52.21
64889;BME280;51386;53.082;8.816;2023-03-25T03:45:04;99826.75;;;14.90;52.37
64889;BME280;51386;53.082;8.816;2023-03-25T03:47:39;99839.38;;;14.95;52.12
64889;BME280;51386;53.082;8.816;2023-03-25T03:50:13;99833.09;;;14.89;52.49
64889;BME280;51386;53.082;8.816;2023-03-25T03:52:46;99832.38;;;14.82;52.39
64889;BME280;51386;53.082;8.816;2023-03-25T03:55:22;99828.69;;;14.83;52.50
64889;BME280;51386;53.082;8.816;2023-03-25T03:58:01;99831.94;;;14.85;52.40
64889;BME280;51386;53.082;8.816;2023-03-25T04:00:34;99838.84;;;14.86;52.36
64889;BME280;51386;53.082;8.816;2023-03-25T04:03:12;99836.78;;;14.88;52.63
64889;BME280;51386;53.082;8.816;2023-03-25T04:05:47;99843.28;;;14.93;52.94
64889;BME280;51386;53.082;8.816;2023-03-25T04:08:25;99845.09;;;14.92;52.70
64889;BME280;51386;53.082;8.816;2023-03-25T04:10:59;99846.69;;;14.93;52.58
64889;BME280;51386;53.082;8.816;2023-03-25T04:13:35;99841.41;;;14.93;52.85
64889;BME280;51386;53.082;8.816;2023-03-25T04:16:04;99848.56;;;14.93;52.89
64889;BME280;51386;53.082;8.816;2023-03-25T04:18:31;99852.63;;;14.95;53.10
64889;BME280;51386;53.082;8.816;2023-03-25T04:20:59;99861.94;;;14.98;52.93
64889;BME280;51386;53.082;8.816;2023-03-25T04:23:27;99861.94;;;14.98;53.10
64889;BME280;51386;53.082;8.816;2023-03-25T04:25:57;99855.38;;;15.00;53.19
64889;BME280;51386;53.082;8.816;2023-03-25T04:28:30;99850.75;;;14.96;53.38
64889;BME280;51386;53.082;8.816;2023-03-25T04:30:57;99855.84;;;14.97;53.69
64889;BME280;51386;53.082;8.816;2023-03-25T04:33:26;99857.91;;;14.95;53.51
64889;BME280;51386;53.082;8.816;2023-03-25T04:35:57;99855.91;;;14.90;54.21
64889;BME280;51386;53.082;8.816;2023-03-25T04:38:27;99849.88;;;14.83;54.15
64889;BME280;51386;53.082;8.816;2023-03-25T04:40:55;99855.66;;;14.80;54.27
64889;BME280;51386;53.082;8.816;2023-03-25T04:43:22;99857.06;;;14.83;54.18
64889;BME280;51386;53.082;8.816;2023-03-25T04:45:50;99852.34;;;14.85;54.12
64889;BME280;51386;53.082;8.816;2023-03-25T04:48:25;99856.81;;;14.84;54.57
64889;BME280;51386;53.082;8.816;2023-03-25T04:50:56;99853.53;;;14.71;55.13
64889;BME280;51386;53.082;8.816;2023-03-25T04:53:25;99845.00;;;14.69;55.05
64889;BME280;51386;53.082;8.816;2023-03-25T04:55:53;99846.84;;;14.68;55.14
64889;BME280;51386;53.082;8.816;2023-03-25T04:58:20;99846.69;;;14.63;55.08
64889;BME280;51386;53.082;8.816;2023-03-25T05:00:51;99841.84;;;14.60;55.19
64889;BME280;51386;53.082;8.816;2023-03-25T05:03:19;99843.00;;;14.64;55.02
64889;BME280;51386;53.082;8.816;2023-03-25T05:05:50;99850.31;;;14.69;54.87
64889;BME280;51386;53.082;8.816;2023-03-25T05:08:19;99844.78;;;14.70;55.08
64889;BME280;51386;53.082;8.816;2023-03-25T05:10:47;99852.13;;;14.68;55.21
64889;BME280;51386;53.082;8.816;2023-03-25T05:13:16;99850.66;;;14.72;54.83
64889;BME280;51386;53.082;8.816;2023-03-25T05:15:43;99849.41;;;14.75;54.77
64889;BME280;51386;53.082;8.816;2023-03-25T05:18:14;99852.06;;;14.75;54.72
64889;BME280;51386;53.082;8.816;2023-03-25T05:20:44;99856.91;;;14.60;55.12
64889;BME280;51386;53.082;8.816;2023-03-25T05:23:13;99862.59;;;14.63;54.96
64889;BME280;51386;53.082;8.816;2023-03-25T05:25:43;99856.38;;;14.69;54.93
64889;BME280;51386;53.082;8.816;2023-03-25T05:28:10;99852.56;;;14.65;54.68
64889;BME280;51386;53.082;8.816;2023-03-25T05:30:40;99846.38;;;14.71;54.99
64889;BME280;51386;53.082;8.816;2023-03-25T05:33:08;99853.31;;;14.72;54.50
64889;BME280;51386;53.082;8.816;2023-03-25T05:35:38;99849.16;;;14.76;54.28
64889;BME280;51386;53.082;8.816;2023-03-25T05:38:06;99849.53;;;14.80;54.16
64889;BME280;51386;53.082;8.816;2023-03-25T05:40:38;99856.44;;;14.81;53.85
64889;BME280;51386;53.082;8.816;2023-03-25T05:43:06;99858.06;;;14.82;53.98
64889;BME280;51386;53.082;8.816;2023-03-25T05:45:33;99863.47;;;14.75;54.09
64889;BME280;51386;53.082;8.816;2023-03-25T05:48:04;99856.19;;;14.71;54.29
64889;BME280;51386;53.082;8.816;2023-03-25T05:50:31;99861.69;;;14.69;54.27
64889;BME280;51386;53.082;8.816;2023-03-25T05:52:59;99865.97;;;14.70;54.04
64889;BME280;51386;53.082;8.816;2023-03-25T05:55:27;99860.22;;;14.73;54.16
64889;BME280;51386;53.082;8.816;2023-03-25T05:57:54;99868.31;;;14.78;53.82
64889;BME280;51386;53.082;8.816;2023-03-25T06:00:22;99870.06;;;14.84;54.12
64889;BME280;51386;53.082;8.816;2023-03-25T06:02:50;99871.03;;;14.90;53.54
64889;BME280;51386;53.082;8.816;2023-03-25T06:05:18;99860.75;;;14.93;53.41
64889;BME280;51386;53.082;8.816;2023-03-25T06:07:49;99862.25;;;14.89;53.14
64889;BME280;51386;53.082;8.816;2023-03-25T06:10:18;99857.97;;;14.88;53.42
64889;BME280;51386;53.082;8.816;2023-03-25T06:12:47;99867.78;;;14.88;53.77
64889;BME280;51386;53.082;8.816;2023-03-25T06:15:16;99862.41;;;14.95;53.50
64889;BME280;51386;53.082;8.816;2023-03-25T06:18:09;99867.22;;;14.98;53.10
64889;BME280;51386;53.082;8.816;2023-03-25T06:20:36;99869.53;;;14.94;53.08
64889;BME280;51386;53.082;8.816;2023-03-25T06:23:03;99870.09;;;14.96;53.07
64889;BME280;51386;53.082;8.816;2023-03-25T06:25:31;99868.41;;;15.02;52.98
64889;BME280;51386;53.082;8.816;2023-03-25T06:27:58;99870.63;;;15.05;52.98
64889;BME280;51386;53.082;8.816;2023-03-25T06:30:29;99871.66;;;15.04;52.91
64889;BME280;51386;53.082;8.816;2023-03-25T06:32:56;99870.00;;;15.03;52.81
64889;BME280;51386;53.082;8.816;2023-03-25T06:35:24;99871.19;;;15.07;53.04
64889;BME280;51386;53.082;8.816;2023-03-25T06:37:51;99874.00;;;15.12;53.28
64889;BME280;51386;53.082;8.816;2023-03-25T06:40:18;99882.75;;;15.24;52.95
64889;BME280;51386;53.082;8.816;2023-03-25T06:42:47;99875.88;;;15.23;52.79
64889;BME280;51386;53.082;8.816;2023-03-25T06:45:14;99869.31;;;15.25;52.58
64889;BME280;51386;53.082;8.816;2023-03-25T06:47:41;99872.44;;;15.34;52.36
64889;BME280;51386;53.082;8.816;2023-03-25T06:50:09;99875.78;;;15.41;52.14
64889;BME280;51386;53.082;8.816;2023-03-25T06:52:36;99874.94;;;15.47;51.90
64889;BME280;51386;53.082;8.816;2023-03-25T06:55:04;99870.34;;;15.36;51.35
64889;BME280;51386;53.082;8.816;2023-03-25T06:57:31;99875.22;;;15.39;51.57
64889;BME280;51386;53.082;8.816;2023-03-25T06:59:59;99875.50;;;15.49;51.68
64889;BME280;51386;53.082;8.816;2023-03-25T07:02:27;99875.84;;;15.52;51.27
64889;BME280;51386;53.082;8.816;2023-03-25T07:04:54;99870.47;;;15.59;51.09
64889;BME280;51386;53.082;8.816;2023-03-25T07:07:21;99868.50;;;15.66;51.06
64889;BME280;51386;53.082;8.816;2023-03-25T07:09:50;99876.59;;;15.83;50.92
64889;BME280;51386;53.082;8.816;2023-03-25T07:12:17;99873.50;;;15.97;50.63
64889;BME280;51386;53.082;8.816;2023-03-25T07:14:50;99870.72;;;15.92;50.00
64889;BME280;51386;53.082;8.816;2023-03-25T07:17:19;99870.25;;;15.95;49.74
64889;BME280;51386;53.082;8.816;2023-03-25T07:19:46;99868.19;;;15.97;50.09
64889;BME280;51386;53.082;8.816;2023-03-25T07:22:13;99870.16;;;16.02;49.94
64889;BME280;51386;53.082;8.816;2023-03-25T07:24:40;99873.69;;;16.07;49.82
64889;BME280;51386;53.082;8.816;2023-03-25T07:27:09;99876.03;;;16.04;49.57
64889;BME280;51386;53.082;8.816;2023-03-25T07:29:36;99878.09;;;16.02;49.66
64889;BME280;51386;53.082;8.816;2023-03-25T07:32:04;99870.34;;;15.77;50.05
64889;BME280;51386;53.082;8.816;2023-03-25T07:34:32;99876.91;;;15.63;50.37
64889;BME280;51386;53.082;8.816;2023-03-25T07:36:59;99866.03;;;15.53;50.93
64889;BME280;51386;53.082;8.816;2023-03-25T07:39:26;99881.16;;;15.23;52.27
64889;BME280;51386;53.082;8.816;2023-03-25T07:41:53;99884.50;;;15.18;52.25
64889;BME280;51386;53.082;8.816;2023-03-25T07:44:20;99885.88;;;15.21;52.29
64889;BME280;51386;53.082;8.816;2023-03-25T07:46:48;99889.59;;;15.31;52.45
64889;BME280;51386;53.082;8.816;2023-03-25T07:49:15;99895.97;;;15.42;52.29
64889;BME280;51386;53.082;8.816;2023-03-25T07:51:44;99896.72;;;15.31;52.53
64889;BME280;51386;53.082;8.816;2023-03-25T07:54:12;99888.88;;;15.24;52.76
64889;BME280;51386;53.082;8.816;2023-03-25T07:56:38;99896.81;;;15.42;52.45
64889;BME280;51386;53.082;8.816;2023-03-25T07:59:06;99895.91;;;15.48;52.25
64889;BME280;51386;53.082;8.816;2023-03-25T08:01:33;99903.63;;;15.50;52.17
64889;BME280;51386;53.082;8.816;2023-03-25T08:04:00;99899.94;;;15.51;51.59
64889;BME280;51386;53.082;8.816;2023-03-25T08:06:27;99922.50;;;15.42;51.52
64889;BME280;51386;53.082;8.816;2023-03-25T08:08:55;99913.25;;;15.33;51.67
64889;BME280;51386;53.082;8.816;2023-03-25T08:11:22;99913.41;;;15.20;51.80
64889;BME280;51386;53.082;8.816;2023-03-25T08:13:49;99920.50;;;15.08;52.46
64889;BME280;51386;53.082;8.816;2023-03-25T08:16:16;99920.69;;;14.95;52.92
64889;BME280;51386;53.082;8.816;2023-03-25T08:18:44;99927.34;;;14.85;52.50
64889;BME280;51386;53.082;8.816;2023-03-25T08:21:11;99913.22;;;14.73;52.86
64889;BME280;51386;53.082;8.816;2023-03-25T08:23:38;99921.44;;;14.65;52.83
64889;BME280;51386;53.082;8.816;2023-03-25T08:26:08;99924.25;;;14.52;53.08
64889;BME280;51386;53.082;8.816;2023-03-25T08:28:36;99921.22;;;14.49;53.19
64889;BME280;51386;53.082;8.816;2023-03-25T08:31:05;99918.84;;;14.41;53.07
64889;BME280;51386;53.082;8.816;2023-03-25T08:33:36;99915.13;;;14.23;53.55
64889;BME280;51386;53.082;8.816;2023-03-25T08:36:08;99921.44;;;14.22;53.52
64889;BME280;51386;53.082;8.816;2023-03-25T08:38:36;99921.84;;;14.26;53.47
64889;BME280;51386;53.082;8.816;2023-03-25T08:41:03;99917.31;;;14.33;53.48
64889;BME280;51386;53.082;8.816;2023-03-25T08:43:32;99932.16;;;14.34;53.33
64889;BME280;51386;53.082;8.816;2023-03-25T08:45:59;99930.56;;;14.33;53.26
64889;BME280;51386;53.082;8.816;2023-03-25T08:48:26;99924.81;;;14.36;53.27
64889;BME280;51386;53.082;8.816;2023-03-25T08:50:53;99920.56;;;14.89;53.78
64889;BME280;51386;53.082;8.816;2023-03-25T08:53:20;99921.97;;;16.27;50.79
64889;BME280;51386;53.082;8.816;2023-03-25T08:55:50;99920.94;;;17.59;48.62
64889;BME280;51386;53.082;8.816;2023-03-25T08:58:19;99907.91;;;19.11;46.20
64889;BME280;51386;53.082;8.816;2023-03-25T09:00:49;99912.66;;;20.68;43.31
64889;BME280;51386;53.082;8.816;2023-03-25T09:03:21;99908.16;;;21.86;39.61
64889;BME280;51386;53.082;8.816;2023-03-25T09:05:49;99904.00;;;22.54;36.61
64889;BME280;51386;53.082;8.816;2023-03-25T09:08:16;99907.69;;;23.32;36.81
64889;BME280;51386;53.082;8.816;2023-03-25T09:10:43;99903.44;;;23.98;34.97
64889;BME280;51386;53.082;8.816;2023-03-25T09:13:11;99911.19;;;24.34;33.65
64889;BME280;51386;53.082;8.816;2023-03-25T09:15:38;99899.06;;;24.83;32.27
64889;BME280;51386;53.082;8.816;2023-03-25T09:18:08;99912.56;;;25.39;32.52
64889;BME280;51386;53.082;8.816;2023-03-25T09:20:36;99903.75;;;25.15;31.17
64889;BME280;51386;53.082;8.816;2023-03-25T09:23:03;99904.56;;;24.50;31.41
64889;BME280;51386;53.082;8.816;2023-03-25T09:25:30;99892.44;;;23.61;32.75
64889;BME280;51386;53.082;8.816;2023-03-25T09:27:57;99899.94;;;22.71;34.59
64889;BME280;51386;53.082;8.816;2023-03-25T09:30:24;99896.88;;;21.84;35.68
64889;BME280;51386;53.082;8.816;2023-03-25T09:32:51;99902.66;;;21.05;36.87
64889;BME280;51386;53.082;8.816;2023-03-25T09:35:19;99903.13;;;20.35;37.72
64889;BME280;51386;53.082;8.816;2023-03-25T09:37:46;99903.56;;;19.85;38.95
64889;BME280;51386;53.082;8.816;2023-03-25T09:40:20;99892.25;;;19.41;39.87
64889;BME280;51386;53.082;8.816;2023-03-25T09:43:06;99888.81;;;18.98;40.50
64889;BME280;51386;53.082;8.816;2023-03-25T09:45:39;99896.47;;;18.67;41.33
64889;BME280;51386;53.082;8.816;2023-03-25T09:48:27;99897.34;;;18.35;42.20
64889;BME280;51386;53.082;8.816;2023-03-25T09:51:00;99890.84;;;18.09;42.60
64889;BME280;51386;53.082;8.816;2023-03-25T09:53:35;99895.94;;;17.94;43.44
64889;BME280;51386;53.082;8.816;2023-03-25T09:56:10;99885.22;;;17.89;43.87
64889;BME280;51386;53.082;8.816;2023-03-25T09:58:42;99892.22;;;17.95;43.85
64889;BME280;51386;53.082;8.816;2023-03-25T10:01:38;99873.19;;;17.86;44.14
64889;BME280;51386;53.082;8.816;2023-03-25T10:04:58;99881.25;;;17.58;45.32
64889;BME280;51386;53.082;8.816;2023-03-25T10:07:43;99870.22;;;17.38;45.98
64889;BME280;51386;53.082;8.816;2023-03-25T10:10:22;99862.19;;;17.33;46.06
64889;BME280;51386;53.082;8.816;2023-03-25T10:13:03;99876.19;;;17.28;46.30
64889;BME280;51386;53.082;8.816;2023-03-25T10:15:39;99883.91;;;17.13;47.24
64889;BME280;51386;53.082;8.816;2023-03-25T10:18:34;99888.53;;;16.78;48.25
64889;BME280;51386;53.082;8.816;2023-03-25T10:21:08;99897.03;;;16.52;48.31
64889;BME280;51386;53.082;8.816;2023-03-25T10:23:44;99911.81;;;16.24;49.43
64889;BME280;51386;53.082;8.816;2023-03-25T10:26:19;99915.47;;;16.00;50.37
64889;BME280;51386;53.082;8.816;2023-03-25T10:28:56;99909.72;;;15.80;51.44
64889;BME280;51386;53.082;8.816;2023-03-25T10:31:28;99917.84;;;15.67;52.13
64889;BME280;51386;53.082;8.816;2023-03-25T10:34:02;99908.63;;;15.58;52.40
64889;BME280;51386;53.082;8.816;2023-03-25T10:36:35;99914.31;;;15.43;52.93
64889;BME280;51386;53.082;8.816;2023-03-25T10:39:13;99919.00;;;15.30;52.77
64889;BME280;51386;53.082;8.816;2023-03-25T10:41:50;99910.66;;;15.26;52.99
64889;BME280;51386;53.082;8.816;2023-03-25T10:44:20;99910.00;;;15.31;53.16
64889;BME280;51386;53.082;8.816;2023-03-25T10:46:54;99903.19;;;15.53;52.93
64889;BME280;51386;53.082;8.816;2023-03-25T10:49:28;99902.66;;;15.74;52.75
64889;BME280;51386;53.082;8.816;2023-03-25T10:51:56;99902.44;;;15.87;52.50
64889;BME280;51386;53.082;8.816;2023-03-25T10:54:30;99897.25;;;15.92;52.39
64889;BME280;51386;53.082;8.816;2023-03-25T10:57:02;99896.00;;;16.06;51.94
64889;BME280;51386;53.082;8.816;2023-03-25T10:59:36;99894.72;;;16.20;51.53
64889;BME280;51386;53.082;8.816;2023-03-25T11:02:13;99888.69;;;16.60;50.01
64889;BME280;51386;53.082;8.816;2023-03-25T11:04:45;99890.16;;;17.07;49.80
64889;BME280;51386;53.082;8.816;2023-03-25T11:07:19;99895.88;;;17.44;48.37
64889;BME280;51386;53.082;8.816;2023-03-25T11:09:48;99887.78;;;17.67;47.37
64889;BME280;51386;53.082;8.816;2023-03-25T11:12:18;99889.06;;;17.81;47.22
64889;BME280;51386;53.082;8.816;2023-03-25T11:14:59;99877.97;;;17.84;46.27
64889;BME280;51386;53.082;8.816;2023-03-25T11:17:28;99879.00;;;17.83;45.95
64889;BME280;51386;53.082;8.816;2023-03-25T11:19:59;99887.22;;;17.82;45.27
64889;BME280;51386;53.082;8.816;2023-03-25T11:22:37;99878.50;;;17.70;45.02
64889;BME280;51386;53.082;8.816;2023-03-25T11:25:15;99892.06;;;17.51;45.71
64889;BME280;51386;53.082;8.816;2023-03-25T11:27:47;99891.50;;;17.38;46.08
64889;BME280;51386;53.082;8.816;2023-03-25T11:30:18;99887.19;;;17.48;46.33
64889;BME280;51386;53.082;8.816;2023-03-25T11:32:57;99876.97;;;17.57;45.83
64889;BME280;51386;53.082;8.816;2023-03-25T11:35:28;99894.47;;;17.53;45.54
64889;BME280;51386;53.082;8.816;2023-03-25T11:37:58;99870.56;;;17.41;45.74
64889;BME280;51386;53.082;8.816;2023-03-25T11:40:28;99868.38;;;17.38;45.63
64889;BME280;51386;53.082;8.816;2023-03-25T11:42:59;99872.25;;;17.47;45.68
64889;BME280;51386;53.082;8.816;2023-03-25T11:45:33;99878.63;;;17.46;45.45
64889;BME280;51386;53.082;8.816;2023-03-25T11:48:19;99887.41;;;17.58;44.94
64889;BME280;51386;53.082;8.816;2023-03-25T11:50:48;99897.22;;;17.75;44.80
64889;BME280;51386;53.082;8.816;2023-03-25T11:53:21;99883.66;;;17.93;43.40
64889;BME280;51386;53.082;8.816;2023-03-25T11:55:56;99888.97;;;18.09;42.72
64889;BME280;51386;53.082;8.816;2023-03-25T11:58:28;99888.81;;;18.16;42.90
64889;BME280;51386;53.082;8.816;2023-03-25T12:01:03;99882.88;;;18.09;43.10
64889;BME280;51386;53.082;8.816;2023-03-25T12:03:34;99886.06;;;18.27;43.23
64889;BME280;51386;53.082;8.816;2023-03-25T12:06:15;99901.94;;;18.39;42.92
64889;BME280;51386;53.082;8.816;2023-03-25T12:08:51;99888.53;;;18.51;42.46
64889;BME280;51386;53.082;8.816;2023-03-25T12:11:27;99903.78;;;18.55;43.00
64889;BME280;51386;53.082;8.816;2023-03-25T12:14:27;99887.53;;;18.40;43.33
64889;BME280;51386;53.082;8.816;2023-03-25T12:17:04;99893.09;;;18.99;42.95
64889;BME280;51386;53.082;8.816;2023-03-25T12:19:47;99890.75;;;19.87;41.71
64889;BME280;51386;53.082;8.816;2023-03-25T12:22:32;99885.38;;;19.82;40.86
64889;BME280;51386;53.082;8.816;2023-03-25T12:25:20;99893.94;;;19.52;41.37
64889;BME280;51386;53.082;8.816;2023-03-25T12:30:58;99893.41;;;18.80;42.15
64889;BME280;51386;53.082;8.816;2023-03-25T12:33:48;99893.47;;;18.42;43.01
64889;BME280;51386;53.082;8.816;2023-03-25T12:36:36;99897.31;;;17.96;44.74
64889;BME280;51386;53.082;8.816;2023-03-25T12:39:22;99899.50;;;17.66;45.77
64889;BME280;51386;53.082;8.816;2023-03-25T12:42:23;99894.88;;;17.33;46.46
64889;BME280;51386;53.082;8.816;2023-03-25T12:45:29;99900.69;;;17.02;46.49
64889;BME280;51386;53.082;8.816;2023-03-25T12:48:14;99891.28;;;16.83;46.89
64889;BME280;51386;53.082;8.816;2023-03-25T12:50:56;99895.34;;;16.74;47.33
64889;BME280;51386;53.082;8.816;2023-03-25T12:53:42;99905.31;;;16.67;47.85
64889;BME280;51386;53.082;8.816;2023-03-25T12:56:33;99886.84;;;16.60;48.28
64889;BME280;51386;53.082;8.816;2023-03-25T12:59:35;99881.41;;;16.95;48.39
64889;BME280;51386;53.082;8.816;2023-03-25T13:02:30;99874.19;;;17.64;47.88
64889;BME280;51386;53.082;8.816;2023-03-25T13:05:16;99881.72;;;18.05;46.49
64889;BME280;51386;53.082;8.816;2023-03-25T13:07:50;99892.53;;;18.15;45.88
64889;BME280;51386;53.082;8.816;2023-03-25T13:10:22;99890.13;;;18.13;45.19
64889;BME280;51386;53.082;8.816;2023-03-25T13:12:54;99890.78;;;18.04;45.35
64889;BME280;51386;53.082;8.816;2023-03-25T13:15:26;99892.84;;;17.85;45.39
64889;BME280;51386;53.082;8.816;2023-03-25T13:18:01;99885.47;;;17.71;45.99
64889;BME280;51386;53.082;8.816;2023-03-25T13:20:34;99887.31;;;17.53;46.33
64889;BME280;51386;53.082;8.816;2023-03-25T13:23:07;99876.84;;;17.35;46.85
64889;BME280;51386;53.082;8.816;2023-03-25T13:25:46;99876.59;;;17.20;47.16
64889;BME280;51386;53.082;8.816;2023-03-25T13:28:21;99878.19;;;16.93;48.34
64889;BME280;51386;53.082;8.816;2023-03-25T13:30:53;99859.22;;;17.01;48.50
64889;BME280;51386;53.082;8.816;2023-03-25T13:33:25;99855.88;;;17.22;47.94